sensor_id;sensor_type;location;lat;lon;timestamp;P1;durP1;ratioP1;P2;durP2;ratioP2
20611;SDS011;10465;42.686;23.364;2023-04-01T00:00:54;21.65;;;14.45;;
20611;SDS011;10465;42.686;23.364;2023-04-01T00:03:21;25.33;;;15.35;;
20611;SDS011;10465;42.686;23.364;2023-04-01T00:05:48;21.20;;;14.02;;
20611;SDS011;10465;42.686;23.364;2023-04-01T00:08:14;22.35;;;13.88;;
20611;SDS011;10465;42.686;23.364;2023-04-01T00:10:40;26.27;;;14.40;;
20611;SDS011;10465;42.686;23.364;2023-04-01T00:13:05;21.63;;;13.60;;
20611;SDS011;10465;42.686;23.364;2023-04-01T00:15:32;20.90;;;13.45;;
20611;SDS011;10465;42.686;23.364;2023-04-01T00:17:57;22.13;;;13.38;;
20611;SDS011;10465;42.686;23.364;2023-04-01T00:20:23;21.58;;;14.15;;
20611;SDS011;10465;42.686;23.364;2023-04-01T00:22:49;21.45;;;13.55;;
20611;SDS011;10465;42.686;23.364;2023-04-01T00:25:15;21.25;;;13.68;;
20611;SDS011;10465;42.686;23.364;2023-04-01T00:27:41;20.25;;;12.75;;
20611;SDS011;10465;42.686;23.364;2023-04-01T00:30:07;23.88;;;13.80;;
20611;SDS011;10465;42.686;23.364;2023-04-01T00:32:33;21.10;;;12.63;;
20611;SDS011;10465;42.686;23.364;2023-04-01T00:34:59;22.05;;;13.55;;
20611;SDS011;10465;42.686;23.364;2023-04-01T00:37:25;19.13;;;12.25;;
20611;SDS011;10465;42.686;23.364;2023-04-01T00:39:51;22.23;;;12.10;;
20611;SDS011;10465;42.686;23.364;2023-04-01T00:42:17;19.40;;;11.18;;
20611;SDS011;10465;42.686;23.364;2023-04-01T00:44:44;16.40;;;10.07;;
20611;SDS011;10465;42.686;23.364;2023-04-01T00:47:10;15.23;;;9.85;;
20611;SDS011;10465;42.686;23.364;2023-04-01T00:49:37;12.55;;;9.52;;
20611;SDS011;10465;42.686;23.364;2023-04-01T00:52:07;14.65;;;9.45;;
20611;SDS011;10465;42.686;23.364;2023-04-01T00:54:36;15.13;;;10.20;;
20611;SDS011;10465;42.686;23.364;2023-04-01T00:57:13;14.30;;;9.75;;
20611;SDS011;10465;42.686;23.364;2023-04-01T00:59:48;16.33;;;9.60;;
20611;SDS011;10465;42.686;23.364;2023-04-01T01:02:17;16.30;;;9.68;;
20611;SDS011;10465;42.686;23.364;2023-04-01T01:04:43;14.40;;;9.45;;
20611;SDS011;10465;42.686;23.364;2023-04-01T01:12:39;14.52;;;9.55;;
20611;SDS011;10465;42.686;23.364;2023-04-01T01:18:06;17.20;;;10.00;;
20611;SDS011;10465;42.686;23.364;2023-04-01T01:26:35;13.38;;;8.70;;
20611;SDS011;10465;42.686;23.364;2023-04-01T01:29:15;14.38;;;8.85;;
20611;SDS011;10465;42.686;23.364;2023-04-01T01:37:41;14.70;;;8.20;;
20611;SDS011;10465;42.686;23.364;2023-04-01T01:40:09;10.88;;;7.22;;
20611;SDS011;10465;42.686;23.364;2023-04-01T01:42:37;8.27;;;6.05;;
20611;SDS011;10465;42.686;23.364;2023-04-01T01:45:06;11.77;;;6.85;;
20611;SDS011;10465;42.686;23.364;2023-04-01T01:47:35;11.18;;;7.03;;
20611;SDS011;10465;42.686;23.364;2023-04-01T01:50:01;10.90;;;5.50;;
20611;SDS011;10465;42.686;23.364;2023-04-01T01:52:28;11.50;;;6.05;;
20611;SDS011;10465;42.686;23.364;2023-04-01T01:54:55;12.23;;;6.30;;
20611;SDS011;10465;42.686;23.364;2023-04-01T01:57:34;9.90;;;6.15;;
20611;SDS011;10465;42.686;23.364;2023-04-01T02:00:05;10.70;;;6.20;;
20611;SDS011;10465;42.686;23.364;2023-04-01T02:02:39;9.45;;;5.28;;
20611;SDS011;10465;42.686;23.364;2023-04-01T02:05:06;7.13;;;4.88;;
20611;SDS011;10465;42.686;23.364;2023-04-01T02:07:36;6.65;;;4.85;;
20611;SDS011;10465;42.686;23.364;2023-04-01T02:10:04;11.60;;;5.88;;
20611;SDS011;10465;42.686;23.364;2023-04-01T02:12:31;9.65;;;5.22;;
20611;SDS011;10465;42.686;23.364;2023-04-01T02:15:06;9.43;;;6.10;;
20611;SDS011;10465;42.686;23.364;2023-04-01T02:17:35;9.07;;;5.97;;
20611;SDS011;10465;42.686;23.364;2023-04-01T02:20:13;9.10;;;5.55;;
20611;SDS011;10465;42.686;23.364;2023-04-01T02:22:44;7.22;;;5.07;;
20611;SDS011;10465;42.686;23.364;2023-04-01T02:25:15;9.35;;;4.97;;
20611;SDS011;10465;42.686;23.364;2023-04-01T02:27:44;9.10;;;4.47;;
20611;SDS011;10465;42.686;23.364;2023-04-01T02:30:11;7.00;;;4.85;;
20611;SDS011;10465;42.686;23.364;2023-04-01T02:32:38;7.70;;;5.03;;
20611;SDS011;10465;42.686;23.364;2023-04-01T02:35:09;7.85;;;4.85;;
20611;SDS011;10465;42.686;23.364;2023-04-01T02:37:37;12.60;;;5.30;;
20611;SDS011;10465;42.686;23.364;2023-04-01T02:40:07;13.18;;;6.15;;
20611;SDS011;10465;42.686;23.364;2023-04-01T02:42:34;8.88;;;5.72;;
20611;SDS011;10465;42.686;23.364;2023-04-01T02:44:59;12.93;;;6.53;;
20611;SDS011;10465;42.686;23.364;2023-04-01T02:47:25;10.63;;;6.35;;
20611;SDS011;10465;42.686;23.364;2023-04-01T02:49:50;9.15;;;6.75;;
20611;SDS011;10465;42.686;23.364;2023-04-01T02:52:16;9.82;;;6.80;;
20611;SDS011;10465;42.686;23.364;2023-04-01T02:54:41;11.00;;;6.60;;
20611;SDS011;10465;42.686;23.364;2023-04-01T02:57:07;14.82;;;7.43;;
20611;SDS011;10465;42.686;23.364;2023-04-01T02:59:32;15.32;;;8.85;;
20611;SDS011;10465;42.686;23.364;2023-04-01T03:01:58;16.05;;;8.73;;
20611;SDS011;10465;42.686;23.364;2023-04-01T03:04:23;17.48;;;9.20;;
20611;SDS011;10465;42.686;23.364;2023-04-01T03:06:49;15.57;;;9.30;;
20611;SDS011;10465;42.686;23.364;2023-04-01T03:09:14;15.10;;;9.00;;
20611;SDS011;10465;42.686;23.364;2023-04-01T03:11:41;14.45;;;8.90;;
20611;SDS011;10465;42.686;23.364;2023-04-01T03:14:06;14.02;;;8.55;;
20611;SDS011;10465;42.686;23.364;2023-04-01T03:16:32;12.30;;;8.45;;
20611;SDS011;10465;42.686;23.364;2023-04-01T03:18:58;13.65;;;8.85;;
20611;SDS011;10465;42.686;23.364;2023-04-01T03:21:24;14.07;;;8.38;;
20611;SDS011;10465;42.686;23.364;2023-04-01T03:23:50;15.93;;;9.02;;
20611;SDS011;10465;42.686;23.364;2023-04-01T03:26:16;12.80;;;8.70;;
20611;SDS011;10465;42.686;23.364;2023-04-01T03:28:43;17.58;;;8.95;;
20611;SDS011;10465;42.686;23.364;2023-04-01T03:31:09;12.73;;;8.68;;
20611;SDS011;10465;42.686;23.364;2023-04-01T03:33:35;14.65;;;10.20;;
20611;SDS011;10465;42.686;23.364;2023-04-01T03:36:00;17.40;;;10.50;;
20611;SDS011;10465;42.686;23.364;2023-04-01T03:38:26;15.95;;;10.05;;
20611;SDS011;10465;42.686;23.364;2023-04-01T03:40:51;19.52;;;10.60;;
20611;SDS011;10465;42.686;23.364;2023-04-01T03:43:17;21.00;;;10.77;;
20611;SDS011;10465;42.686;23.364;2023-04-01T03:45:46;21.17;;;11.05;;
20611;SDS011;10465;42.686;23.364;2023-04-01T03:48:16;20.25;;;11.05;;
20611;SDS011;10465;42.686;23.364;2023-04-01T03:50:42;22.50;;;11.13;;
20611;SDS011;10465;42.686;23.364;2023-04-01T03:53:08;16.95;;;10.82;;
20611;SDS011;10465;42.686;23.364;2023-04-01T03:55:37;16.35;;;10.52;;
20611;SDS011;10465;42.686;23.364;2023-04-01T03:58:05;20.60;;;11.02;;
20611;SDS011;10465;42.686;23.364;2023-04-01T04:00:31;20.58;;;10.73;;
20611;SDS011;10465;42.686;23.364;2023-04-01T04:02:57;23.25;;;10.00;;
20611;SDS011;10465;42.686;23.364;2023-04-01T04:05:25;17.98;;;10.23;;
20611;SDS011;10465;42.686;23.364;2023-04-01T04:07:51;17.95;;;10.52;;
20611;SDS011;10465;42.686;23.364;2023-04-01T04:10:17;13.60;;;9.45;;
20611;SDS011;10465;42.686;23.364;2023-04-01T04:12:43;19.90;;;10.45;;
20611;SDS011;10465;42.686;23.364;2023-04-01T04:15:09;15.90;;;9.98;;
20611;SDS011;10465;42.686;23.364;2023-04-01T04:17:35;18.40;;;9.38;;
20611;SDS011;10465;42.686;23.364;2023-04-01T04:20:01;15.50;;;9.48;;
20611;SDS011;10465;42.686;23.364;2023-04-01T04:22:27;15.07;;;9.15;;
20611;SDS011;10465;42.686;23.364;2023-04-01T04:24:53;15.05;;;9.02;;
20611;SDS011;10465;42.686;23.364;2023-04-01T04:27:20;18.35;;;9.65;;
20611;SDS011;10465;42.686;23.364;2023-04-01T04:29:45;16.50;;;9.85;;
20611;SDS011;10465;42.686;23.364;2023-04-01T04:32:11;14.10;;;8.90;;
20611;SDS011;10465;42.686;23.364;2023-04-01T04:34:36;14.88;;;8.98;;
20611;SDS011;10465;42.686;23.364;2023-04-01T04:37:02;15.50;;;8.40;;
20611;SDS011;10465;42.686;23.364;2023-04-01T04:39:28;15.93;;;9.18;;
20611;SDS011;10465;42.686;23.364;2023-04-01T04:41:54;11.32;;;8.95;;
20611;SDS011;10465;42.686;23.364;2023-04-01T04:44:19;13.75;;;8.18;;
20611;SDS011;10465;42.686;23.364;2023-04-01T04:46:45;15.98;;;8.07;;
20611;SDS011;10465;42.686;23.364;2023-04-01T04:49:11;13.45;;;8.70;;
20611;SDS011;10465;42.686;23.364;2023-04-01T04:51:37;13.27;;;8.48;;
20611;SDS011;10465;42.686;23.364;2023-04-01T04:54:03;12.00;;;7.45;;
20611;SDS011;10465;42.686;23.364;2023-04-01T04:56:29;12.77;;;7.30;;
20611;SDS011;10465;42.686;23.364;2023-04-01T04:58:55;14.48;;;7.80;;
20611;SDS011;10465;42.686;23.364;2023-04-01T05:01:21;13.02;;;8.10;;
20611;SDS011;10465;42.686;23.364;2023-04-01T05:03:47;13.68;;;6.82;;
20611;SDS011;10465;42.686;23.364;2023-04-01T05:06:13;9.52;;;6.85;;
20611;SDS011;10465;42.686;23.364;2023-04-01T05:08:41;11.45;;;6.90;;
20611;SDS011;10465;42.686;23.364;2023-04-01T05:11:09;11.48;;;6.97;;
20611;SDS011;10465;42.686;23.364;2023-04-01T05:13:40;13.88;;;6.80;;
20611;SDS011;10465;42.686;23.364;2023-04-01T05:16:09;9.35;;;6.47;;
20611;SDS011;10465;42.686;23.364;2023-04-01T05:18:36;12.90;;;6.97;;
20611;SDS011;10465;42.686;23.364;2023-04-01T05:21:02;10.05;;;6.38;;
20611;SDS011;10465;42.686;23.364;2023-04-01T05:23:27;11.68;;;6.47;;
20611;SDS011;10465;42.686;23.364;2023-04-01T05:25:53;8.88;;;5.85;;
20611;SDS011;10465;42.686;23.364;2023-04-01T05:28:18;12.45;;;6.00;;
20611;SDS011;10465;42.686;23.364;2023-04-01T05:30:45;10.82;;;6.57;;
20611;SDS011;10465;42.686;23.364;2023-04-01T05:33:12;13.38;;;6.65;;
20611;SDS011;10465;42.686;23.364;2023-04-01T05:35:37;10.20;;;6.93;;
20611;SDS011;10465;42.686;23.364;2023-04-01T05:38:04;18.15;;;7.55;;
20611;SDS011;10465;42.686;23.364;2023-04-01T05:40:29;13.27;;;7.70;;
20611;SDS011;10465;42.686;23.364;2023-04-01T05:42:55;14.82;;;7.07;;
20611;SDS011;10465;42.686;23.364;2023-04-01T05:45:21;10.75;;;6.75;;
20611;SDS011;10465;42.686;23.364;2023-04-01T05:47:48;11.35;;;7.00;;
20611;SDS011;10465;42.686;23.364;2023-04-01T05:50:13;10.93;;;6.82;;
20611;SDS011;10465;42.686;23.364;2023-04-01T05:52:39;13.00;;;6.53;;
20611;SDS011;10465;42.686;23.364;2023-04-01T05:55:05;11.07;;;6.72;;
20611;SDS011;10465;42.686;23.364;2023-04-01T05:57:31;13.07;;;6.18;;
20611;SDS011;10465;42.686;23.364;2023-04-01T05:59:56;12.18;;;6.35;;
20611;SDS011;10465;42.686;23.364;2023-04-01T06:02:22;13.65;;;7.32;;
20611;SDS011;10465;42.686;23.364;2023-04-01T06:04:48;14.75;;;7.60;;
20611;SDS011;10465;42.686;23.364;2023-04-01T06:07:15;12.02;;;7.25;;
20611;SDS011;10465;42.686;23.364;2023-04-01T06:09:42;9.75;;;6.18;;
20611;SDS011;10465;42.686;23.364;2023-04-01T06:29:22;11.57;;;8.50;;
20611;SDS011;10465;42.686;23.364;2023-04-01T06:48:55;9.13;;;5.15;;
20611;SDS011;10465;42.686;23.364;2023-04-01T06:56:28;8.90;;;6.10;;
20611;SDS011;10465;42.686;23.364;2023-04-01T07:02:11;13.93;;;5.53;;
20611;SDS011;10465;42.686;23.364;2023-04-01T07:04:18;10.68;;;6.22;;
20611;SDS011;10465;42.686;23.364;2023-04-01T07:06:52;13.45;;;6.75;;
20611;SDS011;10465;42.686;23.364;2023-04-01T07:12:36;11.40;;;5.85;;
20611;SDS011;10465;42.686;23.364;2023-04-01T07:15:21;11.15;;;5.80;;
20611;SDS011;10465;42.686;23.364;2023-04-01T07:18:29;12.07;;;6.03;;
20611;SDS011;10465;42.686;23.364;2023-04-01T07:21:03;12.45;;;6.03;;
20611;SDS011;10465;42.686;23.364;2023-04-01T07:23:37;13.30;;;6.15;;
20611;SDS011;10465;42.686;23.364;2023-04-01T07:26:40;11.85;;;6.40;;
20611;SDS011;10465;42.686;23.364;2023-04-01T07:28:59;14.95;;;7.05;;
20611;SDS011;10465;42.686;23.364;2023-04-01T07:36:40;11.13;;;6.00;;
20611;SDS011;10465;42.686;23.364;2023-04-01T07:42:09;9.73;;;5.80;;
20611;SDS011;10465;42.686;23.364;2023-04-01T07:44:58;13.90;;;6.15;;
20611;SDS011;10465;42.686;23.364;2023-04-01T07:50:41;10.30;;;4.78;;
20611;SDS011;10465;42.686;23.364;2023-04-01T07:55:50;14.63;;;5.22;;
20611;SDS011;10465;42.686;23.364;2023-04-01T08:01:35;7.82;;;4.57;;
20611;SDS011;10465;42.686;23.364;2023-04-01T08:04:18;11.02;;;4.53;;
20611;SDS011;10465;42.686;23.364;2023-04-01T08:07:10;7.88;;;4.20;;
20611;SDS011;10465;42.686;23.364;2023-04-01T08:12:24;13.85;;;4.28;;
20611;SDS011;10465;42.686;23.364;2023-04-01T08:17:41;7.07;;;4.25;;
20611;SDS011;10465;42.686;23.364;2023-04-01T08:20:14;10.48;;;5.15;;
20611;SDS011;10465;42.686;23.364;2023-04-01T08:22:42;9.02;;;4.63;;
20611;SDS011;10465;42.686;23.364;2023-04-01T08:25:16;9.50;;;5.57;;
20611;SDS011;10465;42.686;23.364;2023-04-01T08:27:49;9.35;;;5.38;;
20611;SDS011;10465;42.686;23.364;2023-04-01T08:30:20;7.20;;;4.85;;
20611;SDS011;10465;42.686;23.364;2023-04-01T08:32:51;10.00;;;4.72;;
20611;SDS011;10465;42.686;23.364;2023-04-01T08:35:34;7.30;;;4.63;;
20611;SDS011;10465;42.686;23.364;2023-04-01T08:38:07;7.20;;;4.25;;
20611;SDS011;10465;42.686;23.364;2023-04-01T08:43:25;12.32;;;5.15;;
20611;SDS011;10465;42.686;23.364;2023-04-01T08:54:24;8.48;;;4.05;;
20611;SDS011;10465;42.686;23.364;2023-04-01T08:56:58;7.78;;;4.18;;
20611;SDS011;10465;42.686;23.364;2023-04-01T09:07:42;10.68;;;5.53;;
20611;SDS011;10465;42.686;23.364;2023-04-01T09:10:27;4.88;;;3.90;;
20611;SDS011;10465;42.686;23.364;2023-04-01T09:18:42;9.10;;;3.90;;
20611;SDS011;10465;42.686;23.364;2023-04-01T09:21:31;9.18;;;3.88;;
20611;SDS011;10465;42.686;23.364;2023-04-01T09:48:57;9.52;;;4.63;;
20611;SDS011;10465;42.686;23.364;2023-04-01T09:54:24;9.00;;;4.82;;
20611;SDS011;10465;42.686;23.364;2023-04-01T09:57:08;6.75;;;3.90;;
20611;SDS011;10465;42.686;23.364;2023-04-01T10:19:20;6.72;;;3.58;;
20611;SDS011;10465;42.686;23.364;2023-04-01T10:43:45;6.97;;;3.83;;
20611;SDS011;10465;42.686;23.364;2023-04-01T11:10:44;10.82;;;5.68;;
20611;SDS011;10465;42.686;23.364;2023-04-01T11:16:25;13.68;;;5.95;;
20611;SDS011;10465;42.686;23.364;2023-04-01T11:41:12;8.45;;;3.40;;
20611;SDS011;10465;42.686;23.364;2023-04-01T11:52:19;4.38;;;1.92;;
20611;SDS011;10465;42.686;23.364;2023-04-01T11:57:36;7.07;;;2.90;;
20611;SDS011;10465;42.686;23.364;2023-04-01T12:08:30;7.35;;;3.85;;
20611;SDS011;10465;42.686;23.364;2023-04-01T12:11:16;6.60;;;3.30;;
20611;SDS011;10465;42.686;23.364;2023-04-01T12:13:59;9.43;;;3.80;;
20611;SDS011;10465;42.686;23.364;2023-04-01T12:16:52;6.35;;;3.70;;
20611;SDS011;10465;42.686;23.364;2023-04-01T12:19:39;7.25;;;4.00;;
20611;SDS011;10465;42.686;23.364;2023-04-01T12:30:32;13.23;;;4.85;;
20611;SDS011;10465;42.686;23.364;2023-04-01T12:39:47;7.72;;;3.70;;
20611;SDS011;10465;42.686;23.364;2023-04-01T12:42:31;8.82;;;4.50;;
20611;SDS011;10465;42.686;23.364;2023-04-01T12:48:17;6.85;;;3.97;;
20611;SDS011;10465;42.686;23.364;2023-04-01T12:51:04;9.10;;;4.40;;
20611;SDS011;10465;42.686;23.364;2023-04-01T12:59:27;7.07;;;4.30;;
20611;SDS011;10465;42.686;23.364;2023-04-01T13:02:05;6.68;;;3.92;;
20611;SDS011;10465;42.686;23.364;2023-04-01T13:18:46;7.65;;;3.88;;
20611;SDS011;10465;42.686;23.364;2023-04-01T13:24:10;6.57;;;4.60;;
20611;SDS011;10465;42.686;23.364;2023-04-01T13:29:25;12.70;;;7.45;;
20611;SDS011;10465;42.686;23.364;2023-04-01T13:48:28;5.45;;;4.05;;
20611;SDS011;10465;42.686;23.364;2023-04-01T13:51:07;9.77;;;6.43;;
20611;SDS011;10465;42.686;23.364;2023-04-01T14:10:40;10.25;;;4.80;;
20611;SDS011;10465;42.686;23.364;2023-04-01T14:25:08;4.82;;;3.20;;
20611;SDS011;10465;42.686;23.364;2023-04-01T14:27:47;6.97;;;3.05;;
20611;SDS011;10465;42.686;23.364;2023-04-01T14:30:32;5.63;;;3.38;;
20611;SDS011;10465;42.686;23.364;2023-04-01T14:36:01;7.97;;;4.22;;
20611;SDS011;10465;42.686;23.364;2023-04-01T14:50:02;4.80;;;3.78;;
20611;SDS011;10465;42.686;23.364;2023-04-01T14:52:36;5.22;;;2.72;;
20611;SDS011;10465;42.686;23.364;2023-04-01T14:58:11;5.53;;;3.42;;
20611;SDS011;10465;42.686;23.364;2023-04-01T15:00:45;8.13;;;5.38;;
20611;SDS011;10465;42.686;23.364;2023-04-01T15:06:27;9.65;;;4.00;;
20611;SDS011;10465;42.686;23.364;2023-04-01T15:30:30;7.50;;;4.68;;
20611;SDS011;10465;42.686;23.364;2023-04-01T15:44:24;8.23;;;5.43;;
20611;SDS011;10465;42.686;23.364;2023-04-01T15:47:31;8.75;;;4.63;;
20611;SDS011;10465;42.686;23.364;2023-04-01T15:53:06;9.68;;;5.78;;
20611;SDS011;10465;42.686;23.364;2023-04-01T15:58:59;2.47;;;1.70;;
20611;SDS011;10465;42.686;23.364;2023-04-01T16:01:56;3.38;;;1.90;;
20611;SDS011;10465;42.686;23.364;2023-04-01T16:04:37;3.17;;;2.53;;
20611;SDS011;10465;42.686;23.364;2023-04-01T16:07:27;2.97;;;2.40;;
20611;SDS011;10465;42.686;23.364;2023-04-01T16:15:37;3.22;;;2.75;;
20611;SDS011;10465;42.686;23.364;2023-04-01T16:18:34;5.80;;;3.65;;
20611;SDS011;10465;42.686;23.364;2023-04-01T16:24:22;3.50;;;2.97;;
20611;SDS011;10465;42.686;23.364;2023-04-01T16:27:18;5.10;;;3.53;;
20611;SDS011;10465;42.686;23.364;2023-04-01T16:29:55;4.65;;;3.20;;
20611;SDS011;10465;42.686;23.364;2023-04-01T16:35:23;4.55;;;3.25;;
20611;SDS011;10465;42.686;23.364;2023-04-01T16:37:53;4.18;;;3.22;;
20611;SDS011;10465;42.686;23.364;2023-04-01T16:40:35;4.45;;;3.45;;
20611;SDS011;10465;42.686;23.364;2023-04-01T16:43:16;5.38;;;3.33;;
20611;SDS011;10465;42.686;23.364;2023-04-01T16:48:45;3.30;;;2.70;;
20611;SDS011;10465;42.686;23.364;2023-04-01T16:51:26;4.28;;;2.90;;
20611;SDS011;10465;42.686;23.364;2023-04-01T16:56:45;4.13;;;2.70;;
20611;SDS011;10465;42.686;23.364;2023-04-01T16:59:24;3.67;;;2.80;;
20611;SDS011;10465;42.686;23.364;2023-04-01T17:39:41;3.55;;;2.40;;
20611;SDS011;10465;42.686;23.364;2023-04-01T17:42:38;3.35;;;2.42;;
20611;SDS011;10465;42.686;23.364;2023-04-01T17:50:24;3.30;;;2.35;;
20611;SDS011;10465;42.686;23.364;2023-04-01T17:58:46;4.18;;;2.60;;
20611;SDS011;10465;42.686;23.364;2023-04-01T18:01:30;3.20;;;2.50;;
20611;SDS011;10465;42.686;23.364;2023-04-01T18:04:10;2.67;;;2.47;;
20611;SDS011;10465;42.686;23.364;2023-04-01T18:25:46;3.03;;;2.80;;
20611;SDS011;10465;42.686;23.364;2023-04-01T18:36:45;3.92;;;2.80;;
20611;SDS011;10465;42.686;23.364;2023-04-01T18:39:34;2.92;;;2.67;;
20611;SDS011;10465;42.686;23.364;2023-04-01T18:42:30;2.75;;;2.55;;
20611;SDS011;10465;42.686;23.364;2023-04-01T18:45:22;2.88;;;2.55;;
20611;SDS011;10465;42.686;23.364;2023-04-01T18:47:59;2.65;;;2.45;;
20611;SDS011;10465;42.686;23.364;2023-04-01T18:55:51;3.42;;;2.78;;
20611;SDS011;10465;42.686;23.364;2023-04-01T18:58:33;4.25;;;3.45;;
20611;SDS011;10465;42.686;23.364;2023-04-01T19:04:19;4.05;;;3.03;;
20611;SDS011;10465;42.686;23.364;2023-04-01T19:06:54;2.65;;;2.42;;
20611;SDS011;10465;42.686;23.364;2023-04-01T19:17:54;2.80;;;2.50;;
20611;SDS011;10465;42.686;23.364;2023-04-01T19:20:53;2.88;;;2.50;;
20611;SDS011;10465;42.686;23.364;2023-04-01T19:26:14;3.35;;;2.60;;
20611;SDS011;10465;42.686;23.364;2023-04-01T19:36:55;2.28;;;2.03;;
20611;SDS011;10465;42.686;23.364;2023-04-01T19:39:34;2.88;;;2.30;;
20611;SDS011;10465;42.686;23.364;2023-04-01T19:52:54;3.58;;;2.00;;
20611;SDS011;10465;42.686;23.364;2023-04-01T19:58:39;2.22;;;1.83;;
20611;SDS011;10465;42.686;23.364;2023-04-01T20:00:51;1.60;;;1.50;;
20611;SDS011;10465;42.686;23.364;2023-04-01T20:03:29;1.67;;;1.58;;
20611;SDS011;10465;42.686;23.364;2023-04-01T20:06:19;1.80;;;1.70;;
20611;SDS011;10465;42.686;23.364;2023-04-01T20:08:58;1.60;;;1.50;;
20611;SDS011;10465;42.686;23.364;2023-04-01T20:14:29;1.58;;;1.48;;
20611;SDS011;10465;42.686;23.364;2023-04-01T20:17:11;2.35;;;1.73;;
20611;SDS011;10465;42.686;23.364;2023-04-01T20:20:14;2.20;;;1.88;;
20611;SDS011;10465;42.686;23.364;2023-04-01T20:28:02;3.05;;;2.20;;
20611;SDS011;10465;42.686;23.364;2023-04-01T20:33:33;5.10;;;2.33;;
20611;SDS011;10465;42.686;23.364;2023-04-01T20:36:33;3.05;;;2.00;;
20611;SDS011;10465;42.686;23.364;2023-04-01T20:50:27;1.60;;;1.38;;
20611;SDS011;10465;42.686;23.364;2023-04-01T20:52:57;1.40;;;1.25;;
20611;SDS011;10465;42.686;23.364;2023-04-01T21:02:31;1.90;;;1.70;;
20611;SDS011;10465;42.686;23.364;2023-04-01T21:11:00;2.22;;;1.52;;
20611;SDS011;10465;42.686;23.364;2023-04-01T21:25:23;2.08;;;1.60;;
20611;SDS011;10465;42.686;23.364;2023-04-01T21:31:05;2.38;;;1.83;;
20611;SDS011;10465;42.686;23.364;2023-04-01T21:33:45;4.32;;;1.50;;
20611;SDS011;10465;42.686;23.364;2023-04-01T21:36:35;2.53;;;1.58;;
20611;SDS011;10465;42.686;23.364;2023-04-01T21:49:56;1.48;;;1.33;;
20611;SDS011;10465;42.686;23.364;2023-04-01T21:58:37;1.33;;;1.20;;
20611;SDS011;10465;42.686;23.364;2023-04-01T22:03:59;1.52;;;1.20;;
20611;SDS011;10465;42.686;23.364;2023-04-01T22:09:00;1.90;;;1.60;;
20611;SDS011;10465;42.686;23.364;2023-04-01T22:14:30;2.33;;;1.45;;
20611;SDS011;10465;42.686;23.364;2023-04-01T22:17:02;1.60;;;1.30;;
20611;SDS011;10465;42.686;23.364;2023-04-01T22:19:48;2.45;;;1.60;;
20611;SDS011;10465;42.686;23.364;2023-04-01T22:28:11;3.05;;;1.40;;
20611;SDS011;10465;42.686;23.364;2023-04-01T22:31:00;1.88;;;1.27;;
20611;SDS011;10465;42.686;23.364;2023-04-01T22:33:32;1.58;;;1.42;;
20611;SDS011;10465;42.686;23.364;2023-04-01T22:44:58;1.95;;;1.50;;
20611;SDS011;10465;42.686;23.364;2023-04-01T22:47:29;2.33;;;1.73;;
20611;SDS011;10465;42.686;23.364;2023-04-01T22:52:46;1.50;;;1.30;;
20611;SDS011;10465;42.686;23.364;2023-04-01T22:55:20;1.60;;;1.33;;
20611;SDS011;10465;42.686;23.364;2023-04-01T23:00:34;1.92;;;1.33;;
20611;SDS011;10465;42.686;23.364;2023-04-01T23:05:51;1.95;;;1.15;;
20611;SDS011;10465;42.686;23.364;2023-04-01T23:10:58;1.80;;;1.23;;
20611;SDS011;10465;42.686;23.364;2023-04-01T23:14:01;3.28;;;1.50;;
20611;SDS011;10465;42.686;23.364;2023-04-01T23:16:32;2.13;;;1.20;;
20611;SDS011;10465;42.686;23.364;2023-04-01T23:19:10;1.67;;;1.08;;
20611;SDS011;10465;42.686;23.364;2023-04-01T23:21:46;1.63;;;1.10;;
20611;SDS011;10465;42.686;23.364;2023-04-01T23:27:30;1.13;;;0.80;;
20611;SDS011;10465;42.686;23.364;2023-04-01T23:30:10;1.20;;;1.00;;
20611;SDS011;10465;42.686;23.364;2023-04-01T23:33:21;3.10;;;1.00;;
20611;SDS011;10465;42.686;23.364;2023-04-01T23:35:59;2.30;;;1.08;;
20611;SDS011;10465;42.686;23.364;2023-04-01T23:38:41;1.73;;;1.33;;
20611;SDS011;10465;42.686;23.364;2023-04-01T23:41:08;2.28;;;0.98;;
20611;SDS011;10465;42.686;23.364;2023-04-01T23:43:45;1.63;;;0.90;;
20611;SDS011;10465;42.686;23.364;2023-04-01T23:46:14;2.45;;;1.00;;
20611;SDS011;10465;42.686;23.364;2023-04-01T23:48:41;1.70;;;1.10;;
20611;SDS011;10465;42.686;23.364;2023-04-01T23:51:22;0.73;;;0.70;;
20611;SDS011;10465;42.686;23.364;2023-04-01T23:53:59;1.27;;;0.80;;
20611;SDS011;10465;42.686;23.364;2023-04-01T23:56:35;1.55;;;0.80;;
20611;SDS011;10465;42.686;23.364;2023-04-01T23:59:03;1.55;;;0.90;;
